sensor_id;sensor_type;location;lat;lon;timestamp;pressure;altitude;pressure_sealevel;temperature;humidity
48200;BME280;33990;44.602;10.976;2023-11-22T00:00:49;100535.78;;;20.66;49.93
48200;BME280;33990;44.602;10.976;2023-11-22T00:03:16;100526.88;;;20.65;50.01
48200;BME280;33990;44.602;10.976;2023-11-22T00:05:43;100533.41;;;20.63;50.30
48200;BME280;33990;44.602;10.976;2023-11-22T00:08:11;100531.69;;;20.62;50.33
48200;BME280;33990;44.602;10.976;2023-11-22T00:10:38;100532.00;;;20.59;50.37
48200;BME280;33990;44.602;10.976;2023-11-22T00:13:06;100527.75;;;20.56;50.55
48200;BME280;33990;44.602;10.976;2023-11-22T00:15:33;100527.91;;;20.55;50.45
48200;BME280;33990;44.602;10.976;2023-11-22T00:18:00;100531.56;;;20.54;50.54
48200;BME280;33990;44.602;10.976;2023-11-22T00:20:31;100527.38;;;20.51;50.57
48200;BME280;33990;44.602;10.976;2023-11-22T00:22:59;100530.06;;;20.51;50.41
48200;BME280;33990;44.602;10.976;2023-11-22T00:25:26;100543.63;;;20.49;50.54
48200;BME280;33990;44.602;10.976;2023-11-22T00:27:54;100530.47;;;20.46;50.45
48200;BME280;33990;44.602;10.976;2023-11-22T00:30:22;100533.28;;;20.45;50.49
48200;BME280;33990;44.602;10.976;2023-11-22T00:32:51;100532.44;;;20.44;50.38
48200;BME280;33990;44.602;10.976;2023-11-22T00:35:19;100528.91;;;20.44;50.43
48200;BME280;33990;44.602;10.976;2023-11-22T00:37:46;100528.22;;;20.42;50.54
48200;BME280;33990;44.602;10.976;2023-11-22T00:40:14;100529.19;;;20.41;50.53
48200;BME280;33990;44.602;10.976;2023-11-22T00:42:41;100530.19;;;20.40;50.60
48200;BME280;33990;44.602;10.976;2023-11-22T00:45:10;100529.34;;;20.39;50.54
48200;BME280;33990;44.602;10.976;2023-11-22T00:47:37;100536.56;;;20.39;50.66
48200;BME280;33990;44.602;10.976;2023-11-22T00:50:06;100539.53;;;20.36;50.65
48200;BME280;33990;44.602;10.976;2023-11-22T00:52:35;100542.22;;;20.36;50.66
48200;BME280;33990;44.602;10.976;2023-11-22T00:55:02;100543.22;;;20.35;50.54
48200;BME280;33990;44.602;10.976;2023-11-22T00:57:31;100548.59;;;20.35;50.58
48200;BME280;33990;44.602;10.976;2023-11-22T00:59:58;100547.88;;;20.33;50.49
48200;BME280;33990;44.602;10.976;2023-11-22T01:02:26;100554.28;;;20.32;50.60
48200;BME280;33990;44.602;10.976;2023-11-22T01:04:54;100559.63;;;20.32;50.48
48200;BME280;33990;44.602;10.976;2023-11-22T01:07:21;100560.66;;;20.31;50.65
48200;BME280;33990;44.602;10.976;2023-11-22T01:09:48;100560.75;;;20.29;50.65
48200;BME280;33990;44.602;10.976;2023-11-22T01:12:16;100561.78;;;20.28;50.62
48200;BME280;33990;44.602;10.976;2023-11-22T01:14:43;100562.78;;;20.27;50.58
48200;BME280;33990;44.602;10.976;2023-11-22T01:17:11;100564.63;;;20.27;50.44
48200;BME280;33990;44.602;10.976;2023-11-22T01:19:38;100555.72;;;20.26;50.56
48200;BME280;33990;44.602;10.976;2023-11-22T01:22:05;100560.25;;;20.25;50.54
48200;BME280;33990;44.602;10.976;2023-11-22T01:24:33;100563.91;;;20.24;50.40
48200;BME280;33990;44.602;10.976;2023-11-22T01:27:01;100556.84;;;20.23;50.57
48200;BME280;33990;44.602;10.976;2023-11-22T01:29:29;100555.97;;;20.23;50.51
48200;BME280;33990;44.602;10.976;2023-11-22T01:31:57;100555.16;;;20.22;50.49
48200;BME280;33990;44.602;10.976;2023-11-22T01:34:24;100552.56;;;20.21;50.53
48200;BME280;33990;44.602;10.976;2023-11-22T01:36:52;100552.56;;;20.21;50.51
48200;BME280;33990;44.602;10.976;2023-11-22T01:39:19;100549.19;;;20.19;50.40
48200;BME280;33990;44.602;10.976;2023-11-22T01:41:48;100555.44;;;20.19;50.56
48200;BME280;33990;44.602;10.976;2023-11-22T01:44:16;100564.50;;;20.18;50.57
48200;BME280;33990;44.602;10.976;2023-11-22T01:46:45;100560.06;;;20.17;50.54
48200;BME280;33990;44.602;10.976;2023-11-22T01:49:13;100553.00;;;20.16;50.42
48200;BME280;33990;44.602;10.976;2023-11-22T01:51:40;100555.69;;;20.16;50.53
48200;BME280;33990;44.602;10.976;2023-11-22T01:54:08;100550.47;;;20.15;50.39
48200;BME280;33990;44.602;10.976;2023-11-22T01:56:37;100555.84;;;20.15;50.30
48200;BME280;33990;44.602;10.976;2023-11-22T01:59:05;100555.00;;;20.14;50.28
48200;BME280;33990;44.602;10.976;2023-11-22T02:01:33;100550.59;;;20.13;50.45
48200;BME280;33990;44.602;10.976;2023-11-22T02:04:00;100559.66;;;20.12;50.30
48200;BME280;33990;44.602;10.976;2023-11-22T02:06:28;100549.91;;;20.11;50.32
48200;BME280;33990;44.602;10.976;2023-11-22T02:08:59;100542.84;;;20.10;50.42
48200;BME280;33990;44.602;10.976;2023-11-22T02:11:26;100544.53;;;20.11;50.26
48200;BME280;33990;44.602;10.976;2023-11-22T02:13:55;100542.84;;;20.10;50.48
48200;BME280;33990;44.602;10.976;2023-11-22T02:16:23;100549.19;;;20.09;50.44
48200;BME280;33990;44.602;10.976;2023-11-22T02:18:50;100548.34;;;20.09;50.42
48200;BME280;33990;44.602;10.976;2023-11-22T02:21:18;100547.50;;;20.08;50.34
48200;BME280;33990;44.602;10.976;2023-11-22T02:23:45;100545.81;;;20.07;50.35
48200;BME280;33990;44.602;10.976;2023-11-22T02:26:13;100547.66;;;20.07;50.49
48200;BME280;33990;44.602;10.976;2023-11-22T02:28:43;100541.44;;;20.06;50.33
48200;BME280;33990;44.602;10.976;2023-11-22T02:31:10;100549.50;;;20.06;50.49
48200;BME280;33990;44.602;10.976;2023-11-22T02:33:37;100545.97;;;20.06;50.35
48200;BME280;33990;44.602;10.976;2023-11-22T02:36:05;100544.25;;;20.05;50.39
48200;BME280;33990;44.602;10.976;2023-11-22T02:38:33;100543.41;;;20.04;50.34
48200;BME280;33990;44.602;10.976;2023-11-22T02:41:02;100548.78;;;20.04;50.43
48200;BME280;33990;44.602;10.976;2023-11-22T02:43:31;100539.03;;;20.03;50.26
48200;BME280;33990;44.602;10.976;2023-11-22T02:45:58;100542.72;;;20.02;50.26
48200;BME280;33990;44.602;10.976;2023-11-22T02:48:26;100554.31;;;20.03;50.49
48200;BME280;33990;44.602;10.976;2023-11-22T02:50:53;100552.63;;;20.02;50.51
48200;BME280;33990;44.602;10.976;2023-11-22T02:53:21;100546.38;;;20.01;50.42
48200;BME280;33990;44.602;10.976;2023-11-22T02:55:48;100544.56;;;20.02;50.41
48200;BME280;33990;44.602;10.976;2023-11-22T02:58:16;100550.91;;;20.00;50.51
48200;BME280;33990;44.602;10.976;2023-11-22T03:00:44;100549.22;;;19.99;50.41
48200;BME280;33990;44.602;10.976;2023-11-22T03:03:12;100555.44;;;20.00;50.40
48200;BME280;33990;44.602;10.976;2023-11-22T03:05:40;100556.44;;;19.99;50.32
48200;BME280;33990;44.602;10.976;2023-11-22T03:08:07;100553.75;;;19.99;50.38
48200;BME280;33990;44.602;10.976;2023-11-22T03:10:37;100562.66;;;19.99;50.37
48200;BME280;33990;44.602;10.976;2023-11-22T03:13:04;100560.13;;;19.98;50.45
48200;BME280;33990;44.602;10.976;2023-11-22T03:15:32;100551.22;;;19.97;50.38
48200;BME280;33990;44.602;10.976;2023-11-22T03:17:59;100555.72;;;19.97;50.37
48200;BME280;33990;44.602;10.976;2023-11-22T03:20:28;100561.97;;;19.97;50.30
48200;BME280;33990;44.602;10.976;2023-11-22T03:22:56;100550.50;;;19.95;50.54
48200;BME280;33990;44.602;10.976;2023-11-22T03:25:23;100557.56;;;19.96;50.44
48200;BME280;33990;44.602;10.976;2023-11-22T03:27:50;100557.72;;;19.95;50.28
48200;BME280;33990;44.602;10.976;2023-11-22T03:30:18;100554.19;;;19.94;50.49
48200;BME280;33990;44.602;10.976;2023-11-22T03:32:49;100555.88;;;19.95;50.45
48200;BME280;33990;44.602;10.976;2023-11-22T03:35:17;100543.56;;;19.93;50.35
48200;BME280;33990;44.602;10.976;2023-11-22T03:37:45;100552.50;;;19.93;50.35
48200;BME280;33990;44.602;10.976;2023-11-22T03:40:12;100554.31;;;19.93;50.35
48200;BME280;33990;44.602;10.976;2023-11-22T03:42:41;100549.81;;;19.93;50.46
48200;BME280;33990;44.602;10.976;2023-11-22T03:45:08;100552.63;;;19.92;50.32
48200;BME280;33990;44.602;10.976;2023-11-22T03:47:37;100553.63;;;19.91;50.26
48200;BME280;33990;44.602;10.976;2023-11-22T03:50:06;100547.25;;;19.92;50.30
48200;BME280;33990;44.602;10.976;2023-11-22T03:52:34;100543.03;;;19.89;50.19
48200;BME280;33990;44.602;10.976;2023-11-22T03:55:01;100558.16;;;19.90;50.35
48200;BME280;33990;44.602;10.976;2023-11-22T03:57:31;100554.63;;;19.90;50.33
48200;BME280;33990;44.602;10.976;2023-11-22T03:59:58;100552.91;;;19.89;50.24
48200;BME280;33990;44.602;10.976;2023-11-22T04:02:26;100547.53;;;19.89;50.44
48200;BME280;33990;44.602;10.976;2023-11-22T04:04:56;100545.84;;;19.88;50.34
48200;BME280;33990;44.602;10.976;2023-11-22T04:07:24;100545.84;;;19.88;50.21
48200;BME280;33990;44.602;10.976;2023-11-22T04:09:51;100558.44;;;19.87;50.24
48200;BME280;33990;44.602;10.976;2023-11-22T04:12:18;100558.44;;;19.87;50.30
48200;BME280;33990;44.602;10.976;2023-11-22T04:14:46;100561.25;;;19.86;50.25
48200;BME280;33990;44.602;10.976;2023-11-22T04:17:13;100572.84;;;19.86;50.23
48200;BME280;33990;44.602;10.976;2023-11-22T04:19:41;100574.69;;;19.86;50.44
48200;BME280;33990;44.602;10.976;2023-11-22T04:22:09;100584.59;;;19.85;50.33
48200;BME280;33990;44.602;10.976;2023-11-22T04:24:37;100587.41;;;19.84;50.37
48200;BME280;33990;44.602;10.976;2023-11-22T04:27:06;100588.25;;;19.84;50.35
48200;BME280;33990;44.602;10.976;2023-11-22T04:29:34;100597.31;;;19.83;50.29
48200;BME280;33990;44.602;10.976;2023-11-22T04:32:02;100598.16;;;19.84;50.30
48200;BME280;33990;44.602;10.976;2023-11-22T04:34:29;100599.16;;;19.83;50.31
48200;BME280;33990;44.602;10.976;2023-11-22T04:36:57;100604.53;;;19.83;50.26
48200;BME280;33990;44.602;10.976;2023-11-22T04:39:24;100597.47;;;19.82;50.27
48200;BME280;33990;44.602;10.976;2023-11-22T04:41:52;100602.84;;;19.82;50.40
48200;BME280;33990;44.602;10.976;2023-11-22T04:44:19;100607.22;;;19.83;50.22
48200;BME280;33990;44.602;10.976;2023-11-22T04:46:46;100608.31;;;19.80;50.27
48200;BME280;33990;44.602;10.976;2023-11-22T04:49:14;100615.41;;;19.81;50.30
48200;BME280;33990;44.602;10.976;2023-11-22T04:51:41;100608.31;;;19.80;50.35
48200;BME280;33990;44.602;10.976;2023-11-22T04:54:10;100610.03;;;19.81;50.42
48200;BME280;33990;44.602;10.976;2023-11-22T04:56:37;100619.91;;;19.81;50.44
48200;BME280;33990;44.602;10.976;2023-11-22T04:59:05;100620.91;;;19.80;50.43
48200;BME280;33990;44.602;10.976;2023-11-22T05:01:32;100618.38;;;19.78;50.38
48200;BME280;33990;44.602;10.976;2023-11-22T05:04:01;100620.06;;;19.79;50.30
48200;BME280;33990;44.602;10.976;2023-11-22T05:06:28;100622.75;;;19.79;50.44
48200;BME280;33990;44.602;10.976;2023-11-22T05:08:56;100622.91;;;19.78;50.45
48200;BME280;33990;44.602;10.976;2023-11-22T05:11:24;100631.81;;;19.78;50.40
48200;BME280;33990;44.602;10.976;2023-11-22T05:13:51;100623.75;;;19.78;50.15
48200;BME280;33990;44.602;10.976;2023-11-22T05:16:19;100624.75;;;19.77;50.20
48200;BME280;33990;44.602;10.976;2023-11-22T05:18:46;100630.13;;;19.77;50.28
48200;BME280;33990;44.602;10.976;2023-11-22T05:21:14;100635.59;;;19.75;50.20
48200;BME280;33990;44.602;10.976;2023-11-22T05:23:41;100641.81;;;19.76;50.29
48200;BME280;33990;44.602;10.976;2023-11-22T05:26:12;100638.28;;;19.75;50.32
48200;BME280;33990;44.602;10.976;2023-11-22T05:28:40;100636.44;;;19.76;50.41
48200;BME280;33990;44.602;10.976;2023-11-22T05:31:07;100639.97;;;19.76;50.61
48200;BME280;33990;44.602;10.976;2023-11-22T05:33:34;100648.91;;;19.77;50.65
48200;BME280;33990;44.602;10.976;2023-11-22T05:36:02;100650.72;;;19.76;50.43
48200;BME280;33990;44.602;10.976;2023-11-22T05:38:30;100657.09;;;19.75;50.42
48200;BME280;33990;44.602;10.976;2023-11-22T05:40:58;100667.00;;;19.75;50.16
48200;BME280;33990;44.602;10.976;2023-11-22T05:43:25;100673.38;;;19.74;50.40
48200;BME280;33990;44.602;10.976;2023-11-22T05:45:54;100662.63;;;19.74;50.38
48200;BME280;33990;44.602;10.976;2023-11-22T05:48:21;100662.63;;;19.74;50.43
48200;BME280;33990;44.602;10.976;2023-11-22T05:50:49;100666.16;;;19.74;50.50
48200;BME280;33990;44.602;10.976;2023-11-22T05:53:17;100681.41;;;19.74;50.39
48200;BME280;33990;44.602;10.976;2023-11-22T05:55:48;100677.03;;;19.73;50.52
48200;BME280;33990;44.602;10.976;2023-11-22T05:58:16;100683.25;;;19.73;50.28
48200;BME280;33990;44.602;10.976;2023-11-22T06:00:45;100682.41;;;19.73;50.27
48200;BME280;33990;44.602;10.976;2023-11-22T06:03:13;100686.06;;;19.72;50.28
48200;BME280;33990;44.602;10.976;2023-11-22T06:05:41;100684.38;;;19.71;50.23
48200;BME280;33990;44.602;10.976;2023-11-22T06:08:08;100690.75;;;19.70;50.35
48200;BME280;33990;44.602;10.976;2023-11-22T06:10:38;100690.84;;;19.68;50.26
48200;BME280;33990;44.602;10.976;2023-11-22T06:13:09;100687.22;;;19.69;50.19
48200;BME280;33990;44.602;10.976;2023-11-22T06:15:37;100681.94;;;19.68;50.37
48200;BME280;33990;44.602;10.976;2023-11-22T06:18:05;100696.22;;;19.68;50.22
48200;BME280;33990;44.602;10.976;2023-11-22T06:20:32;100695.38;;;19.68;50.42
48200;BME280;33990;44.602;10.976;2023-11-22T06:23:00;100702.47;;;19.69;50.28
48200;BME280;33990;44.602;10.976;2023-11-22T06:25:27;100697.22;;;19.67;50.29
48200;BME280;33990;44.602;10.976;2023-11-22T06:27:54;100703.44;;;19.68;50.29
48200;BME280;33990;44.602;10.976;2023-11-22T06:30:25;100699.06;;;19.67;50.36
48200;BME280;33990;44.602;10.976;2023-11-22T06:32:52;100711.66;;;19.66;50.28
48200;BME280;33990;44.602;10.976;2023-11-22T06:35:21;100718.00;;;19.65;50.40
48200;BME280;33990;44.602;10.976;2023-11-22T06:37:48;100724.22;;;19.66;50.25
48200;BME280;33990;44.602;10.976;2023-11-22T06:40:16;100731.44;;;19.65;50.40
48200;BME280;33990;44.602;10.976;2023-11-22T06:42:44;100739.50;;;19.65;50.18
48200;BME280;33990;44.602;10.976;2023-11-22T06:45:11;100741.19;;;19.66;50.15
48200;BME280;33990;44.602;10.976;2023-11-22T06:47:41;100740.34;;;19.66;50.26
48200;BME280;33990;44.602;10.976;2023-11-22T06:50:09;100740.34;;;19.66;50.13
48200;BME280;33990;44.602;10.976;2023-11-22T06:52:40;100754.78;;;19.65;50.15
48200;BME280;33990;44.602;10.976;2023-11-22T06:55:09;100754.63;;;19.66;50.31
48200;BME280;33990;44.602;10.976;2023-11-22T06:57:37;100755.63;;;19.65;50.24
48200;BME280;33990;44.602;10.976;2023-11-22T07:00:05;100764.63;;;19.64;50.12
48200;BME280;33990;44.602;10.976;2023-11-22T07:02:33;100762.81;;;19.65;50.38
48200;BME280;33990;44.602;10.976;2023-11-22T07:05:03;100779.06;;;19.63;50.17
48200;BME280;33990;44.602;10.976;2023-11-22T07:07:30;100782.59;;;19.64;50.15
48200;BME280;33990;44.602;10.976;2023-11-22T07:09:58;100781.75;;;19.63;50.01
48200;BME280;33990;44.602;10.976;2023-11-22T07:12:27;100801.53;;;19.62;49.96
48200;BME280;33990;44.602;10.976;2023-11-22T07:14:54;100798.00;;;19.62;50.02
48200;BME280;33990;44.602;10.976;2023-11-22T07:17:22;100800.69;;;19.62;49.98
48200;BME280;33990;44.602;10.976;2023-11-22T07:19:50;100798.84;;;19.62;49.82
48200;BME280;33990;44.602;10.976;2023-11-22T07:22:18;100807.91;;;19.61;49.87
48200;BME280;33990;44.602;10.976;2023-11-22T07:24:50;100813.25;;;19.61;49.88
48200;BME280;33990;44.602;10.976;2023-11-22T07:27:29;100807.00;;;19.61;50.08
48200;BME280;33990;44.602;10.976;2023-11-22T07:29:58;100820.31;;;19.62;49.95
48200;BME280;33990;44.602;10.976;2023-11-22T07:32:25;100824.94;;;19.60;49.91
48200;BME280;33990;44.602;10.976;2023-11-22T07:34:52;100827.63;;;19.60;49.96
48200;BME280;33990;44.602;10.976;2023-11-22T07:37:23;100825.94;;;19.59;50.07
48200;BME280;33990;44.602;10.976;2023-11-22T07:39:51;100818.88;;;19.58;50.02
48200;BME280;33990;44.602;10.976;2023-11-22T07:42:20;100824.22;;;19.58;49.87
48200;BME280;33990;44.602;10.976;2023-11-22T07:44:49;100829.59;;;19.58;49.91
48200;BME280;33990;44.602;10.976;2023-11-22T07:47:23;100830.44;;;19.59;49.99
48200;BME280;33990;44.602;10.976;2023-11-22T07:49:51;100830.44;;;19.59;49.88
48200;BME280;33990;44.602;10.976;2023-11-22T07:52:19;100843.03;;;19.58;50.02
48200;BME280;33990;44.602;10.976;2023-11-22T07:54:46;100843.16;;;19.57;50.11
48200;BME280;33990;44.602;10.976;2023-11-22T07:57:14;100841.34;;;19.57;49.85
48200;BME280;33990;44.602;10.976;2023-11-22T07:59:41;100851.19;;;19.57;50.07
48200;BME280;33990;44.602;10.976;2023-11-22T08:02:09;100851.09;;;19.58;50.25
48200;BME280;33990;44.602;10.976;2023-11-22T08:04:39;100852.09;;;19.57;50.23
48200;BME280;33990;44.602;10.976;2023-11-22T08:07:07;100870.88;;;19.57;50.11
48200;BME280;33990;44.602;10.976;2023-11-22T08:09:35;100873.56;;;19.57;50.24
48200;BME280;33990;44.602;10.976;2023-11-22T08:12:02;100886.13;;;19.57;50.32
48200;BME280;33990;44.602;10.976;2023-11-22T08:14:32;100884.16;;;19.59;50.54
48200;BME280;33990;44.602;10.976;2023-11-22T08:17:00;100898.56;;;19.58;50.74
48200;BME280;33990;44.602;10.976;2023-11-22T08:19:29;100895.88;;;19.58;50.63
48200;BME280;33990;44.602;10.976;2023-11-22T08:21:57;100903.09;;;19.57;50.63
48200;BME280;33990;44.602;10.976;2023-11-22T08:24:24;100898.56;;;19.58;50.59
48200;BME280;33990;44.602;10.976;2023-11-22T08:26:51;100906.75;;;19.56;50.63
48200;BME280;33990;44.602;10.976;2023-11-22T08:29:19;100905.78;;;19.57;50.39
48200;BME280;33990;44.602;10.976;2023-11-22T08:31:46;100902.22;;;19.57;50.55
48200;BME280;33990;44.602;10.976;2023-11-22T08:34:15;100909.31;;;19.58;50.69
48200;BME280;33990;44.602;10.976;2023-11-22T08:36:42;100920.91;;;19.58;51.09
48200;BME280;33990;44.602;10.976;2023-11-22T08:39:10;100920.91;;;19.58;51.38
48200;BME280;33990;44.602;10.976;2023-11-22T08:41:37;100925.28;;;19.59;51.21
48200;BME280;33990;44.602;10.976;2023-11-22T08:44:05;100930.66;;;19.59;51.26
48200;BME280;33990;44.602;10.976;2023-11-22T08:46:33;100919.91;;;19.59;51.25
48200;BME280;33990;44.602;10.976;2023-11-22T08:49:01;100921.75;;;19.59;51.05
48200;BME280;33990;44.602;10.976;2023-11-22T08:51:29;100939.56;;;19.60;50.69
48200;BME280;33990;44.602;10.976;2023-11-22T08:53:56;100933.34;;;19.59;50.63
48200;BME280;33990;44.602;10.976;2023-11-22T08:56:24;100944.09;;;19.59;50.78
48200;BME280;33990;44.602;10.976;2023-11-22T08:58:51;100943.09;;;19.60;50.81
48200;BME280;33990;44.602;10.976;2023-11-22T09:01:20;100934.19;;;19.60;50.61
48200;BME280;33990;44.602;10.976;2023-11-22T09:03:47;100947.63;;;19.60;50.56
48200;BME280;33990;44.602;10.976;2023-11-22T09:06:15;100953.84;;;19.60;50.67
48200;BME280;33990;44.602;10.976;2023-11-22T09:08:42;100954.81;;;19.59;50.50
48200;BME280;33990;44.602;10.976;2023-11-22T09:11:10;100959.13;;;19.62;50.29
48200;BME280;33990;44.602;10.976;2023-11-22T09:13:37;100969.94;;;19.60;50.47
48200;BME280;33990;44.602;10.976;2023-11-22T09:16:05;100969.03;;;19.61;50.40
48200;BME280;33990;44.602;10.976;2023-11-22T09:18:33;100966.34;;;19.61;50.39
48200;BME280;33990;44.602;10.976;2023-11-22T09:21:00;100967.19;;;19.62;50.28
48200;BME280;33990;44.602;10.976;2023-11-22T09:23:28;100968.16;;;19.61;50.34
48200;BME280;33990;44.602;10.976;2023-11-22T09:25:57;100959.13;;;19.62;50.25
48200;BME280;33990;44.602;10.976;2023-11-22T09:28:24;100961.69;;;19.63;50.48
48200;BME280;33990;44.602;10.976;2023-11-22T09:30:52;100969.72;;;19.63;50.24
48200;BME280;33990;44.602;10.976;2023-11-22T09:33:19;100970.72;;;19.62;50.33
48200;BME280;33990;44.602;10.976;2023-11-22T09:35:47;100967.41;;;19.59;50.01
48200;BME280;33990;44.602;10.976;2023-11-22T09:38:15;100963.53;;;19.51;49.78
48200;BME280;33990;44.602;10.976;2023-11-22T09:40:48;100973.38;;;19.41;49.37
48200;BME280;33990;44.602;10.976;2023-11-22T09:43:19;100970.47;;;19.33;49.22
48200;BME280;33990;44.602;10.976;2023-11-22T09:45:48;100974.00;;;19.34;49.16
48200;BME280;33990;44.602;10.976;2023-11-22T09:48:23;100971.31;;;19.34;49.21
48200;BME280;33990;44.602;10.976;2023-11-22T09:51:03;100979.13;;;19.37;49.46
48200;BME280;33990;44.602;10.976;2023-11-22T09:56:19;100965.31;;;19.41;49.41
48200;BME280;33990;44.602;10.976;2023-11-22T09:58:49;100974.06;;;19.43;49.50
48200;BME280;33990;44.602;10.976;2023-11-22T10:01:18;100973.06;;;19.44;49.41
48200;BME280;33990;44.602;10.976;2023-11-22T10:03:46;100978.34;;;19.46;49.49
48200;BME280;33990;44.602;10.976;2023-11-22T10:06:14;100984.56;;;19.46;49.62
48200;BME280;33990;44.602;10.976;2023-11-22T10:08:42;100993.31;;;19.48;49.51
48200;BME280;33990;44.602;10.976;2023-11-22T10:11:10;100983.47;;;19.49;49.51
48200;BME280;33990;44.602;10.976;2023-11-22T10:13:37;100990.63;;;19.48;49.37
48200;BME280;33990;44.602;10.976;2023-11-22T10:16:12;100984.31;;;19.49;49.39
48200;BME280;33990;44.602;10.976;2023-11-22T10:18:41;100985.16;;;19.50;49.43
48200;BME280;33990;44.602;10.976;2023-11-22T10:21:20;100982.47;;;19.50;49.43
48200;BME280;33990;44.602;10.976;2023-11-22T10:23:48;100993.22;;;19.50;49.36
48200;BME280;33990;44.602;10.976;2023-11-22T10:26:16;100992.22;;;19.51;49.31
48200;BME280;33990;44.602;10.976;2023-11-22T10:28:43;100988.53;;;19.52;49.23
48200;BME280;33990;44.602;10.976;2023-11-22T10:31:11;100979.53;;;19.53;49.30
48200;BME280;33990;44.602;10.976;2023-11-22T10:33:42;100972.31;;;19.54;50.21
48200;BME280;33990;44.602;10.976;2023-11-22T10:36:10;100983.91;;;19.54;50.50
48200;BME280;33990;44.602;10.976;2023-11-22T10:38:39;100978.66;;;19.52;51.77
48200;BME280;33990;44.602;10.976;2023-11-22T10:41:07;100979.66;;;19.51;52.23
48200;BME280;33990;44.602;10.976;2023-11-22T10:43:35;100989.53;;;19.51;52.66
48200;BME280;33990;44.602;10.976;2023-11-22T10:46:04;100987.84;;;19.50;52.97
48200;BME280;33990;44.602;10.976;2023-11-22T10:48:37;100990.63;;;19.48;53.05
48200;BME280;33990;44.602;10.976;2023-11-22T10:51:05;100996.16;;;19.47;53.19
48200;BME280;33990;44.602;10.976;2023-11-22T10:53:34;100997.84;;;19.48;53.37
48200;BME280;33990;44.602;10.976;2023-11-22T10:56:15;100997.00;;;19.47;53.37
48200;BME280;33990;44.602;10.976;2023-11-22T10:58:48;100999.69;;;19.47;53.08
48200;BME280;33990;44.602;10.976;2023-11-22T11:01:16;101002.38;;;19.47;52.75
48200;BME280;33990;44.602;10.976;2023-11-22T11:03:49;101011.41;;;19.46;53.57
48200;BME280;33990;44.602;10.976;2023-11-22T11:06:24;101017.75;;;19.45;53.56
48200;BME280;33990;44.602;10.976;2023-11-22T11:08:58;101018.72;;;19.44;53.66
48200;BME280;33990;44.602;10.976;2023-11-22T11:11:28;101023.25;;;19.44;53.82
48200;BME280;33990;44.602;10.976;2023-11-22T11:13:57;101024.22;;;19.43;54.06
48200;BME280;33990;44.602;10.976;2023-11-22T11:16:25;101034.97;;;19.43;54.15
48200;BME280;33990;44.602;10.976;2023-11-22T11:18:54;101028.91;;;19.41;54.29
48200;BME280;33990;44.602;10.976;2023-11-22T11:21:22;101027.06;;;19.41;54.38
48200;BME280;33990;44.602;10.976;2023-11-22T11:23:51;101022.53;;;19.42;54.87
48200;BME280;33990;44.602;10.976;2023-11-22T11:26:21;101028.91;;;19.41;54.75
48200;BME280;33990;44.602;10.976;2023-11-22T11:28:50;101027.06;;;19.41;54.95
48200;BME280;33990;44.602;10.976;2023-11-22T11:31:22;101026.22;;;19.41;55.08
48200;BME280;33990;44.602;10.976;2023-11-22T11:36:28;101028.91;;;19.41;55.31
48200;BME280;33990;44.602;10.976;2023-11-22T11:38:57;101034.25;;;19.41;55.78
48200;BME280;33990;44.602;10.976;2023-11-22T11:41:32;101045.25;;;19.38;54.32
48200;BME280;33990;44.602;10.976;2023-11-22T11:44:01;101049.28;;;19.32;52.45
48200;BME280;33990;44.602;10.976;2023-11-22T11:46:30;101046.25;;;19.25;51.16
48200;BME280;33990;44.602;10.976;2023-11-22T11:48:58;101059.31;;;19.19;50.33
48200;BME280;33990;44.602;10.976;2023-11-22T11:51:28;101051.03;;;19.11;49.53
48200;BME280;33990;44.602;10.976;2023-11-22T11:53:55;101047.66;;;19.09;49.64
48200;BME280;33990;44.602;10.976;2023-11-22T11:56:23;101052.16;;;19.08;49.81
48200;BME280;33990;44.602;10.976;2023-11-22T11:58:56;101053.00;;;19.09;49.93
48200;BME280;33990;44.602;10.976;2023-11-22T12:01:28;101058.38;;;19.09;49.90
48200;BME280;33990;44.602;10.976;2023-11-22T12:04:01;101060.06;;;19.10;50.08
48200;BME280;33990;44.602;10.976;2023-11-22T12:06:29;101053.88;;;19.09;50.27
48200;BME280;33990;44.602;10.976;2023-11-22T12:08:58;101056.41;;;19.11;50.02
48200;BME280;33990;44.602;10.976;2023-11-22T12:11:25;101054.56;;;19.11;49.69
48200;BME280;33990;44.602;10.976;2023-11-22T12:13:54;101051.03;;;19.11;49.08
48200;BME280;33990;44.602;10.976;2023-11-22T12:16:22;101055.56;;;19.10;48.59
48200;BME280;33990;44.602;10.976;2023-11-22T12:18:50;101044.97;;;19.09;48.56
48200;BME280;33990;44.602;10.976;2023-11-22T12:21:19;101051.56;;;19.05;48.17
48200;BME280;33990;44.602;10.976;2023-11-22T12:23:46;101044.84;;;18.99;47.66
48200;BME280;33990;44.602;10.976;2023-11-22T12:26:19;101049.97;;;18.91;47.31
48200;BME280;33990;44.602;10.976;2023-11-22T12:28:48;101049.03;;;18.81;47.20
48200;BME280;33990;44.602;10.976;2023-11-22T12:31:30;101049.25;;;18.77;47.30
48200;BME280;33990;44.602;10.976;2023-11-22T12:34:04;101045.13;;;18.73;47.51
48200;BME280;33990;44.602;10.976;2023-11-22T12:36:34;101044.38;;;18.71;47.63
48200;BME280;33990;44.602;10.976;2023-11-22T12:39:07;101046.31;;;18.69;47.63
48200;BME280;33990;44.602;10.976;2023-11-22T12:41:35;101047.41;;;18.67;47.18
48200;BME280;33990;44.602;10.976;2023-11-22T12:44:04;101060.09;;;18.65;47.17
48200;BME280;33990;44.602;10.976;2023-11-22T12:46:49;101046.31;;;18.69;47.99
48200;BME280;33990;44.602;10.976;2023-11-22T12:49:17;101053.88;;;18.75;48.58
48200;BME280;33990;44.602;10.976;2023-11-22T12:51:50;101056.09;;;18.82;49.77